createdAt,value
2018-12-14T00:02:56.082Z,0.46
2018-12-14T00:08:00.253Z,0.52
2018-12-14T00:13:02.553Z,0.57
2018-12-14T00:18:04.844Z,0.53
2018-12-14T00:23:07.977Z,0.51
2018-12-14T00:28:10.637Z,0.49
2018-12-14T00:33:12.813Z,0.50
2018-12-14T00:38:14.977Z,0.51
2018-12-14T00:43:17.129Z,0.56
2018-12-14T00:48:19.199Z,0.58
2018-12-14T00:53:21.233Z,0.61
2018-12-14T00:58:23.394Z,0.59
2018-12-14T01:03:25.576Z,0.63
2018-12-14T01:08:27.739Z,0.62
2018-12-14T01:13:30.145Z,0.61
2018-12-14T01:18:32.445Z,0.61
2018-12-14T01:23:34.637Z,0.60
2018-12-14T01:28:36.702Z,0.59
2018-12-14T01:33:38.774Z,0.60
2018-12-14T01:38:47.822Z,0.60
2018-12-14T01:43:49.993Z,0.57
2018-12-14T01:48:52.166Z,0.58
2018-12-14T01:53:54.237Z,0.55
2018-12-14T01:58:56.334Z,0.47
2018-12-14T02:03:58.764Z,0.47
2018-12-14T02:09:01.874Z,0.44
2018-12-14T02:14:07.620Z,0.44
2018-12-14T02:19:10.089Z,0.44
2018-12-14T02:24:12.561Z,0.43
2018-12-14T02:29:14.622Z,0.40
2018-12-14T02:34:17.096Z,0.40
2018-12-14T02:39:19.584Z,0.39
2018-12-14T02:44:21.646Z,0.37
2018-12-14T02:49:23.697Z,0.43
2018-12-14T02:54:25.761Z,0.42
2018-12-14T02:59:27.870Z,0.40
2018-12-14T03:04:29.907Z,0.34
2018-12-14T03:09:32.666Z,0.38
2018-12-14T03:14:34.933Z,0.41
2018-12-14T03:19:37.093Z,0.34
2018-12-14T03:24:39.306Z,0.32
2018-12-14T03:29:48.582Z,0.32
2018-12-14T03:34:50.614Z,0.30
2018-12-14T03:39:52.677Z,0.24
2018-12-14T03:44:54.830Z,0.23
2018-12-14T03:49:56.878Z,0.26
2018-12-14T03:54:58.933Z,0.27
2018-12-14T04:00:01.012Z,0.23
2018-12-14T04:05:03.263Z,0.28
2018-12-14T04:10:05.980Z,0.22
2018-12-14T04:15:08.298Z,0.25
2018-12-14T04:20:10.850Z,0.24
2018-12-14T04:25:13.171Z,0.26
2018-12-14T04:30:15.348Z,0.27
2018-12-14T04:35:17.729Z,0.20
2018-12-14T04:40:20.029Z,0.15
2018-12-14T04:45:22.281Z,0.08
2018-12-14T04:50:24.442Z,-0.04
2018-12-14T04:55:26.662Z,-0.03
2018-12-14T05:00:28.806Z,0.07
2018-12-14T05:05:31.231Z,0.13
2018-12-14T05:10:33.730Z,0.15
2018-12-14T05:15:36.015Z,0.17
2018-12-14T05:20:38.178Z,0.13
2018-12-14T05:25:40.313Z,0.20
2018-12-14T05:30:42.393Z,0.16
2018-12-14T05:35:44.544Z,0.15
2018-12-14T05:40:46.720Z,0.15
2018-12-14T05:45:48.989Z,0.14
2018-12-14T05:50:51.157Z,0.12
2018-12-14T05:55:53.423Z,0.11
2018-12-14T06:00:55.650Z,0.03
2018-12-14T06:05:57.821Z,0.10
2018-12-14T06:11:00.049Z,0.25
2018-12-14T06:16:02.217Z,0.31
2018-12-14T06:21:04.504Z,0.26
2018-12-14T06:26:06.708Z,0.21
2018-12-14T06:31:08.749Z,0.16
2018-12-14T06:36:10.823Z,0.18
2018-12-14T06:41:12.874Z,0.25
2018-12-14T06:46:15.055Z,0.13
2018-12-14T06:51:17.393Z,0.16
2018-12-14T06:56:19.469Z,0.17
2018-12-14T07:01:21.522Z,0.16
2018-12-14T07:06:23.697Z,0.17
2018-12-14T07:11:25.778Z,0.14
2018-12-14T07:16:27.937Z,0.12
2018-12-14T07:21:30.126Z,0.11
2018-12-14T07:26:32.773Z,0.10
2018-12-14T07:31:34.850Z,0.15
2018-12-14T07:36:37.146Z,0.10
2018-12-14T07:41:39.445Z,0.14
2018-12-14T07:46:41.490Z,0.18
2018-12-14T07:51:43.661Z,0.18
2018-12-14T07:56:45.850Z,0.19
2018-12-14T08:01:48.047Z,0.21
2018-12-14T08:06:50.145Z,0.19
2018-12-14T08:11:52.345Z,0.25
2018-12-14T08:16:54.385Z,0.30
2018-12-14T08:21:56.454Z,0.28
2018-12-14T08:26:58.578Z,0.29
2018-12-14T08:32:00.650Z,0.32
2018-12-14T08:37:02.937Z,0.43
2018-12-14T08:42:05.221Z,0.57
2018-12-14T08:47:07.377Z,0.58
2018-12-14T08:52:09.533Z,0.58
2018-12-14T08:57:11.750Z,0.64
2018-12-14T09:02:14.060Z,0.57
2018-12-14T09:07:16.402Z,0.78
2018-12-14T09:12:18.580Z,0.89
2018-12-14T09:17:20.865Z,0.84
2018-12-14T09:22:23.398Z,0.77
2018-12-14T09:27:26.492Z,0.76
2018-12-14T09:32:28.754Z,0.72
2018-12-14T09:37:30.934Z,0.85
2018-12-14T09:42:33.229Z,0.77
2018-12-14T09:47:35.394Z,0.83
2018-12-14T09:52:37.473Z,0.81
2018-12-14T09:57:39.681Z,0.80
2018-12-14T10:02:49.846Z,0.87
2018-12-14T10:07:52.129Z,0.82
2018-12-14T10:12:54.329Z,0.98
2018-12-14T10:17:56.431Z,0.97
2018-12-14T10:22:58.607Z,0.90
2018-12-14T10:28:00.801Z,1.05
2018-12-14T10:33:02.958Z,1.07
2018-12-14T10:38:05.013Z,1.07
2018-12-14T10:43:07.398Z,1.19
2018-12-14T10:48:09.553Z,1.33
2018-12-14T10:53:12.145Z,1.13
2018-12-14T10:58:14.569Z,1.25
2018-12-14T11:03:16.721Z,1.34
2018-12-14T11:08:18.781Z,1.37
2018-12-14T11:13:21.429Z,1.45
2018-12-14T11:18:43.294Z,1.43
2018-12-14T11:23:45.347Z,1.52
2018-12-14T11:28:47.518Z,1.57
2018-12-14T11:33:49.699Z,1.78
2018-12-14T11:38:51.769Z,1.75
2018-12-14T11:43:53.845Z,1.52
2018-12-14T11:48:56.017Z,1.63
2018-12-14T11:53:58.165Z,1.72
2018-12-14T11:59:00.586Z,1.68
2018-12-14T12:04:02.974Z,1.48
2018-12-14T12:09:08.278Z,1.45
2018-12-14T12:14:11.538Z,1.34
2018-12-14T12:19:13.606Z,1.40
2018-12-14T12:24:15.797Z,1.35
2018-12-14T12:29:18.005Z,1.39
2018-12-14T12:34:20.075Z,1.43
2018-12-14T12:39:22.210Z,1.60
2018-12-14T12:44:24.497Z,1.47
2018-12-14T12:49:26.791Z,1.38
2018-12-14T12:54:28.969Z,1.35
2018-12-14T12:59:31.470Z,1.35
2018-12-14T13:04:33.693Z,1.28
2018-12-14T13:09:35.857Z,1.26
2018-12-14T13:14:40.183Z,1.16
2018-12-14T13:19:42.246Z,1.19
2018-12-14T13:24:44.313Z,1.15
2018-12-14T13:29:46.385Z,1.15
2018-12-14T13:34:48.436Z,1.11
2018-12-14T13:39:50.670Z,1.05
2018-12-14T13:44:54.045Z,1.01
2018-12-14T13:49:56.250Z,0.98
2018-12-14T13:54:58.405Z,0.92
2018-12-14T14:00:00.625Z,0.89
2018-12-14T14:05:09.830Z,0.89
2018-12-14T14:10:12.329Z,0.88
2018-12-14T14:15:20.709Z,0.82
2018-12-14T14:20:18.585Z,0.96
2018-12-14T14:25:20.858Z,0.97
2018-12-14T14:30:25.246Z,0.90
2018-12-14T14:35:27.586Z,0.84
2018-12-14T14:40:29.737Z,0.79
2018-12-14T14:45:38.775Z,0.75
2018-12-14T14:50:40.881Z,0.82
2018-12-14T14:55:43.041Z,0.73
2018-12-14T15:00:45.103Z,0.76
2018-12-14T15:05:47.593Z,0.67
2018-12-14T15:10:49.884Z,0.65
2018-12-14T15:15:52.182Z,0.56
2018-12-14T15:20:54.572Z,0.56
2018-12-14T15:25:56.737Z,0.60
2018-12-14T15:30:59.023Z,0.50
2018-12-14T15:36:01.255Z,0.45
2018-12-14T15:41:03.534Z,0.46
2018-12-14T15:46:05.786Z,0.42
2018-12-14T15:51:07.878Z,0.41
2018-12-14T15:56:10.029Z,0.39
2018-12-14T16:01:12.285Z,0.43
2018-12-14T16:06:14.513Z,0.37
2018-12-14T16:11:16.606Z,0.39
2018-12-14T16:16:18.753Z,0.38
2018-12-14T16:21:21.042Z,0.34
2018-12-14T16:26:23.746Z,0.34
2018-12-14T16:31:26.542Z,0.36
2018-12-14T16:36:28.661Z,0.33
2018-12-14T16:41:30.740Z,0.37
2018-12-14T16:46:33.029Z,0.35
2018-12-14T16:51:35.565Z,0.37
2018-12-14T16:56:37.666Z,0.32
2018-12-14T17:01:47.661Z,0.31
2018-12-14T17:06:50.199Z,0.33
2018-12-14T17:11:52.492Z,0.32
2018-12-14T17:16:54.814Z,0.30
2018-12-14T17:21:57.051Z,0.27
2018-12-14T17:26:59.813Z,0.27
2018-12-14T17:32:02.528Z,0.28
2018-12-14T17:37:05.937Z,0.27
2018-12-14T17:42:10.159Z,0.30
2018-12-14T17:47:12.782Z,0.30
2018-12-14T17:52:15.217Z,0.31
2018-12-14T17:57:17.372Z,0.31
2018-12-14T18:02:19.550Z,0.31
2018-12-14T18:07:21.894Z,0.29
2018-12-14T18:12:25.005Z,0.28
2018-12-14T18:17:27.221Z,0.29
2018-12-14T18:22:29.645Z,0.27
2018-12-14T18:27:34.625Z,0.27
2018-12-14T18:32:36.785Z,0.22
2018-12-14T18:37:38.914Z,0.25
2018-12-14T18:42:41.882Z,0.22
2018-12-14T18:47:45.052Z,0.23
2018-12-14T18:52:47.129Z,0.20
2018-12-14T18:57:49.376Z,0.17
2018-12-14T19:02:51.450Z,0.16
2018-12-14T19:07:53.823Z,0.22
2018-12-14T19:12:55.810Z,0.20
2018-12-14T19:17:57.959Z,0.21
2018-12-14T19:23:00.146Z,0.17
2018-12-14T19:28:02.353Z,0.19
2018-12-14T19:33:11.486Z,0.18
2018-12-14T19:38:13.653Z,0.18
2018-12-14T19:43:15.749Z,0.17
2018-12-14T19:48:17.790Z,0.20
2018-12-14T19:53:19.854Z,0.17
2018-12-14T19:58:22.109Z,0.15
2018-12-14T20:03:25.379Z,0.15
2018-12-14T20:08:27.737Z,0.17
2018-12-14T20:13:30.246Z,0.15
2018-12-14T20:18:32.449Z,0.18
2018-12-14T20:23:35.602Z,0.15
2018-12-14T20:28:37.899Z,0.14
2018-12-14T20:33:40.055Z,0.13
2018-12-14T20:38:42.101Z,0.11
2018-12-14T20:43:44.302Z,0.15
2018-12-14T20:48:46.540Z,0.14
2018-12-14T20:53:49.995Z,0.12
2018-12-14T20:58:52.274Z,0.14
2018-12-14T21:03:54.509Z,0.12
2018-12-14T21:08:56.674Z,0.14
2018-12-14T21:13:59.173Z,0.10
2018-12-14T21:19:01.669Z,0.09
2018-12-14T21:24:04.270Z,0.12
2018-12-14T21:29:07.546Z,0.12
2018-12-14T21:34:09.981Z,0.12
2018-12-14T21:39:12.315Z,0.12
2018-12-14T21:44:14.577Z,0.09
2018-12-14T21:49:17.002Z,0.10
2018-12-14T21:54:19.313Z,0.08
2018-12-14T21:59:21.394Z,0.13
2018-12-14T22:04:23.581Z,0.11
2018-12-14T22:09:26.639Z,0.06
2018-12-14T22:14:28.757Z,0.10
2018-12-14T22:19:30.920Z,0.12
2018-12-14T22:24:33.377Z,0.13
2018-12-14T22:29:35.553Z,0.12
2018-12-14T22:34:37.713Z,0.15
2018-12-14T22:39:40.197Z,0.13
2018-12-14T22:44:42.235Z,0.10
2018-12-14T22:49:44.442Z,0.10
2018-12-14T22:54:46.618Z,0.13
2018-12-14T22:59:48.796Z,0.11
2018-12-14T23:04:50.890Z,0.15
2018-12-14T23:09:53.109Z,0.15
2018-12-14T23:14:55.256Z,0.13
2018-12-14T23:19:57.313Z,0.21
2018-12-14T23:24:59.593Z,0.14
2018-12-14T23:30:02.247Z,0.15
2018-12-14T23:35:05.314Z,0.15
2018-12-14T23:40:07.463Z,0.12
2018-12-14T23:45:09.866Z,0.14
2018-12-14T23:50:12.690Z,0.13
2018-12-14T23:55:14.733Z,0.15
